createdAt,value
2019-01-30T00:00:21.332Z,11.38
2019-01-30T00:02:49.783Z,9.38
2019-01-30T00:05:18.226Z,8.83
2019-01-30T00:07:46.749Z,9.60
2019-01-30T00:10:15.230Z,9.75
2019-01-30T00:12:43.711Z,12.13
2019-01-30T00:15:12.921Z,11.08
2019-01-30T00:17:41.375Z,13.80
2019-01-30T00:20:11.518Z,9.50
2019-01-30T00:22:40.001Z,16.27
2019-01-30T00:25:09.844Z,10.25
2019-01-30T00:27:38.296Z,10.88
2019-01-30T00:30:10.972Z,11.50
2019-01-30T00:32:39.427Z,10.58
2019-01-30T00:35:09.589Z,11.15
2019-01-30T00:37:38.762Z,12.98
2019-01-30T00:40:08.779Z,9.63
2019-01-30T00:42:37.215Z,10.80
2019-01-30T00:45:07.282Z,11.53
2019-01-30T00:47:35.742Z,12.00
2019-01-30T00:50:05.698Z,15.95
2019-01-30T00:52:34.170Z,14.73
2019-01-30T00:55:02.614Z,11.00
2019-01-30T00:57:31.071Z,13.22
2019-01-30T00:59:59.571Z,11.28
2019-01-30T01:02:28.017Z,12.23
2019-01-30T01:04:56.467Z,10.45
2019-01-30T01:07:24.947Z,13.72
2019-01-30T01:09:53.398Z,11.60
2019-01-30T01:12:21.843Z,12.45
2019-01-30T01:14:50.382Z,11.03
2019-01-30T01:17:18.781Z,9.93
2019-01-30T01:19:47.242Z,9.73
2019-01-30T01:22:15.825Z,10.53
2019-01-30T01:24:44.330Z,10.50
2019-01-30T01:27:12.824Z,12.07
2019-01-30T01:29:41.372Z,10.90
2019-01-30T01:32:09.876Z,10.60
2019-01-30T01:34:38.333Z,10.23
2019-01-30T01:37:06.832Z,13.62
2019-01-30T01:39:35.293Z,12.13
2019-01-30T01:42:03.745Z,10.13
2019-01-30T01:44:32.252Z,11.70
2019-01-30T01:47:00.695Z,12.10
2019-01-30T01:49:29.149Z,9.85
2019-01-30T01:51:57.702Z,10.30
2019-01-30T01:54:26.286Z,12.35
2019-01-30T01:56:54.734Z,11.93
2019-01-30T01:59:23.229Z,10.93
2019-01-30T02:01:51.727Z,13.50
2019-01-30T02:04:20.182Z,13.15
2019-01-30T02:06:48.720Z,10.05
2019-01-30T02:09:17.210Z,10.75
2019-01-30T02:11:45.761Z,13.28
2019-01-30T02:14:14.252Z,9.10
2019-01-30T02:16:42.715Z,10.48
2019-01-30T02:19:11.193Z,14.30
2019-01-30T02:21:39.639Z,14.13
2019-01-30T02:24:08.095Z,10.78
2019-01-30T02:26:36.599Z,9.93
2019-01-30T02:29:05.039Z,9.38
2019-01-30T02:31:33.496Z,11.70
2019-01-30T02:34:04.082Z,10.75
2019-01-30T02:36:35.071Z,9.15
2019-01-30T02:39:11.483Z,12.28
2019-01-30T02:41:40.592Z,10.28
2019-01-30T02:44:09.039Z,9.00
2019-01-30T02:46:37.520Z,10.53
2019-01-30T02:49:06.079Z,10.23
2019-01-30T02:51:34.665Z,9.63
2019-01-30T02:54:03.128Z,9.70
2019-01-30T02:56:31.618Z,11.60
2019-01-30T02:59:00.107Z,14.95
2019-01-30T03:01:28.586Z,19.92
2019-01-30T03:03:57.170Z,17.00
2019-01-30T03:06:25.587Z,15.08
2019-01-30T03:08:54.237Z,15.05
2019-01-30T03:11:22.820Z,10.28
2019-01-30T03:13:51.311Z,13.43
2019-01-30T03:16:19.778Z,13.08
2019-01-30T03:18:48.365Z,13.55
2019-01-30T03:21:16.845Z,17.95
2019-01-30T03:23:45.312Z,12.00
2019-01-30T03:26:13.762Z,10.35
2019-01-30T03:28:42.287Z,13.20
2019-01-30T03:31:17.820Z,15.75
2019-01-30T03:33:40.995Z,10.05
2019-01-30T03:36:09.469Z,12.98
2019-01-30T03:38:38.055Z,7.37
2019-01-30T03:41:06.606Z,10.15
2019-01-30T03:43:35.059Z,8.70
2019-01-30T03:46:03.603Z,6.83
2019-01-30T03:48:32.097Z,7.15
2019-01-30T03:51:00.666Z,7.58
2019-01-30T03:53:29.151Z,6.37
2019-01-30T03:55:57.582Z,7.22
2019-01-30T03:58:26.045Z,9.53
2019-01-30T04:00:54.527Z,4.97
2019-01-30T04:03:23.071Z,6.12
2019-01-30T04:05:51.552Z,7.10
2019-01-30T04:08:20.023Z,6.12
2019-01-30T04:10:48.510Z,7.22
2019-01-30T04:13:17.016Z,8.03
2019-01-30T04:15:46.769Z,8.60
2019-01-30T04:18:15.224Z,6.83
2019-01-30T04:20:43.770Z,6.45
2019-01-30T04:23:12.257Z,5.85
2019-01-30T04:25:40.703Z,5.40
2019-01-30T04:28:09.183Z,6.15
2019-01-30T04:30:56.939Z,5.65
2019-01-30T04:33:25.427Z,6.12
2019-01-30T04:35:53.836Z,5.15
2019-01-30T04:38:22.329Z,6.83
2019-01-30T04:40:50.766Z,8.20
2019-01-30T04:43:19.213Z,5.72
2019-01-30T04:45:47.694Z,6.40
2019-01-30T04:48:16.148Z,7.85
2019-01-30T04:50:44.595Z,6.20
2019-01-30T04:53:13.075Z,7.40
2019-01-30T04:55:41.522Z,6.47
2019-01-30T04:58:09.976Z,7.50
2019-01-30T05:00:38.462Z,6.80
2019-01-30T05:03:06.912Z,6.47
2019-01-30T05:05:35.478Z,6.05
2019-01-30T05:08:04.659Z,5.17
2019-01-30T05:10:33.104Z,10.72
2019-01-30T05:13:01.551Z,12.68
2019-01-30T05:15:30.041Z,6.75
2019-01-30T05:17:58.492Z,7.20
2019-01-30T05:20:26.934Z,6.47
2019-01-30T05:22:55.438Z,9.35
2019-01-30T05:25:23.891Z,10.50
2019-01-30T05:27:52.350Z,14.18
2019-01-30T05:30:22.298Z,8.33
2019-01-30T05:32:50.752Z,9.60
2019-01-30T05:35:19.304Z,10.08
2019-01-30T05:37:50.862Z,9.78
2019-01-30T05:40:19.335Z,11.15
2019-01-30T05:42:47.871Z,11.57
2019-01-30T05:45:17.014Z,8.90
2019-01-30T05:47:45.595Z,9.75
2019-01-30T05:50:15.400Z,12.43
2019-01-30T05:52:44.512Z,11.08
2019-01-30T05:55:14.559Z,14.20
2019-01-30T05:57:43.061Z,20.00
2019-01-30T06:00:13.018Z,10.45
2019-01-30T06:02:41.430Z,15.85
2019-01-30T06:05:10.799Z,14.60
2019-01-30T06:07:39.279Z,14.50
2019-01-30T06:10:09.141Z,14.63
2019-01-30T06:12:37.727Z,16.60
2019-01-30T06:15:07.645Z,16.97
2019-01-30T06:17:36.282Z,23.18
2019-01-30T06:20:06.880Z,17.45
2019-01-30T06:22:35.347Z,14.18
2019-01-30T06:25:04.997Z,15.98
2019-01-30T06:27:33.496Z,20.77
2019-01-30T06:30:02.062Z,16.90
2019-01-30T06:32:30.542Z,21.52
2019-01-30T06:34:59.016Z,19.27
2019-01-30T06:37:27.505Z,18.00
2019-01-30T06:39:55.924Z,15.68
2019-01-30T06:42:24.467Z,22.93
2019-01-30T06:44:52.879Z,23.30
2019-01-30T06:47:21.328Z,20.70
2019-01-30T06:49:49.911Z,19.95
2019-01-30T06:52:18.393Z,22.17
2019-01-30T06:54:46.834Z,19.90
2019-01-30T06:57:15.355Z,21.23
2019-01-30T06:59:43.841Z,21.95
2019-01-30T07:02:12.244Z,18.50
2019-01-30T07:04:40.735Z,20.70
2019-01-30T07:07:09.278Z,26.02
2019-01-30T07:09:37.960Z,24.60
2019-01-30T07:12:06.463Z,24.20
2019-01-30T07:14:35.029Z,22.00
2019-01-30T07:17:03.474Z,19.32
2019-01-30T07:19:31.962Z,26.75
2019-01-30T07:22:00.472Z,30.37
2019-01-30T07:24:28.954Z,24.12
2019-01-30T07:26:57.472Z,21.82
2019-01-30T07:29:26.018Z,22.52
2019-01-30T07:31:54.494Z,21.20
2019-01-30T07:34:23.082Z,27.32
2019-01-30T07:36:51.543Z,18.67
2019-01-30T07:39:19.998Z,23.20
2019-01-30T07:41:48.525Z,23.87
2019-01-30T07:44:16.947Z,21.68
2019-01-30T07:46:45.728Z,24.72
2019-01-30T07:49:14.208Z,23.25
2019-01-30T07:51:43.643Z,22.73
2019-01-30T07:54:12.160Z,20.65
2019-01-30T07:56:40.715Z,24.77
2019-01-30T07:59:09.419Z,24.55
2019-01-30T08:01:37.935Z,23.77
2019-01-30T08:04:06.396Z,22.25
2019-01-30T08:06:34.975Z,24.07
2019-01-30T08:09:05.016Z,22.65
2019-01-30T08:11:46.079Z,23.20
2019-01-30T08:14:14.652Z,23.07
2019-01-30T08:16:43.542Z,21.62
2019-01-30T08:19:11.987Z,18.87
2019-01-30T08:21:40.483Z,22.25
2019-01-30T08:24:08.983Z,21.75
2019-01-30T08:26:37.471Z,21.57
2019-01-30T08:29:06.559Z,19.75
2019-01-30T08:31:35.767Z,22.35
2019-01-30T08:34:05.153Z,20.88
2019-01-30T08:36:33.618Z,19.98
2019-01-30T08:39:03.005Z,18.70
2019-01-30T08:41:31.529Z,19.50
2019-01-30T08:44:00.112Z,20.97
2019-01-30T08:46:28.695Z,19.10
2019-01-30T08:48:57.569Z,19.53
2019-01-30T08:51:26.480Z,18.50
2019-01-30T08:53:55.369Z,17.80
2019-01-30T08:56:24.297Z,17.70
2019-01-30T08:58:53.266Z,18.73
2019-01-30T09:01:22.245Z,20.10
2019-01-30T09:03:51.135Z,19.87
2019-01-30T09:06:20.769Z,18.57
2019-01-30T09:08:49.741Z,20.13
2019-01-30T09:11:18.177Z,19.07
2019-01-30T09:13:47.023Z,19.67
2019-01-30T09:16:15.998Z,18.10
2019-01-30T09:18:44.890Z,20.70
2019-01-30T09:21:13.780Z,19.93
2019-01-30T09:23:42.699Z,18.13
2019-01-30T09:26:11.665Z,21.10
2019-01-30T09:28:40.556Z,23.07
2019-01-30T09:31:09.478Z,19.63
2019-01-30T09:33:38.445Z,20.53
2019-01-30T09:36:07.432Z,20.80
2019-01-30T09:38:36.334Z,20.23
2019-01-30T09:41:05.421Z,20.20
2019-01-30T09:43:34.412Z,20.00
2019-01-30T09:46:03.302Z,19.17
2019-01-30T09:48:32.295Z,18.07
2019-01-30T09:51:01.290Z,18.97
2019-01-30T09:53:30.210Z,18.77
2019-01-30T09:55:59.175Z,18.37
2019-01-30T09:58:28.084Z,21.10
2019-01-30T10:00:57.056Z,19.60
2019-01-30T10:03:35.794Z,17.07
2019-01-30T10:05:56.475Z,19.10
2019-01-30T10:08:25.469Z,17.37
2019-01-30T10:10:54.540Z,16.73
2019-01-30T10:13:24.113Z,17.83
2019-01-30T10:15:53.170Z,18.03
2019-01-30T10:18:22.048Z,19.30
2019-01-30T10:20:50.946Z,18.40
2019-01-30T10:23:19.837Z,18.53
2019-01-30T10:25:48.735Z,61.27
2019-01-30T10:28:17.322Z,21.87
2019-01-30T10:30:48.003Z,19.07
2019-01-30T10:33:16.751Z,19.13
2019-01-30T10:35:46.017Z,17.93
2019-01-30T10:38:15.804Z,18.33
2019-01-30T10:40:44.242Z,19.27
2019-01-30T10:43:13.508Z,18.47
2019-01-30T10:45:42.109Z,18.90
2019-01-30T10:48:10.756Z,20.27
2019-01-30T10:50:39.686Z,18.67
2019-01-30T10:53:08.223Z,23.70
2019-01-30T10:55:38.079Z,21.25
2019-01-30T10:58:10.199Z,23.67
2019-01-30T11:00:45.486Z,22.22
2019-01-30T11:03:14.378Z,21.50
2019-01-30T11:05:44.395Z,25.08
2019-01-30T11:08:13.593Z,22.58
2019-01-30T11:10:43.099Z,25.95
2019-01-30T11:13:11.937Z,23.85
2019-01-30T11:15:41.621Z,24.65
2019-01-30T11:18:12.263Z,24.92
2019-01-30T11:20:41.107Z,25.75
2019-01-30T11:23:10.111Z,25.05
2019-01-30T11:25:40.127Z,21.52
2019-01-30T11:28:09.432Z,24.43
2019-01-30T11:30:37.876Z,25.35
2019-01-30T11:33:06.474Z,23.70
2019-01-30T11:35:35.632Z,25.70
2019-01-30T11:38:05.178Z,26.75
2019-01-30T11:40:33.779Z,23.38
2019-01-30T11:43:02.226Z,22.13
2019-01-30T11:45:35.145Z,24.30
2019-01-30T11:48:03.832Z,25.15
2019-01-30T11:50:32.287Z,22.87
2019-01-30T11:53:00.792Z,23.90
2019-01-30T11:55:29.274Z,25.48
2019-01-30T11:57:57.715Z,21.82
2019-01-30T12:00:44.465Z,23.20
2019-01-30T12:03:32.220Z,23.10
2019-01-30T12:06:00.780Z,28.90
2019-01-30T12:08:29.274Z,24.70
2019-01-30T12:10:57.844Z,28.95
2019-01-30T12:13:26.368Z,23.12
2019-01-30T12:15:54.909Z,20.50
2019-01-30T12:18:23.391Z,21.73
2019-01-30T12:20:52.109Z,23.22
2019-01-30T12:23:21.931Z,23.80
2019-01-30T12:25:50.383Z,31.27
2019-01-30T12:28:18.953Z,22.90
2019-01-30T12:30:47.445Z,21.15
2019-01-30T12:33:15.905Z,21.82
2019-01-30T12:35:44.501Z,22.52
2019-01-30T12:38:12.948Z,26.35
2019-01-30T12:40:41.409Z,26.15
2019-01-30T12:43:09.942Z,22.65
2019-01-30T12:45:38.424Z,28.42
2019-01-30T12:48:07.316Z,31.57
2019-01-30T12:50:35.831Z,24.40
2019-01-30T12:53:04.380Z,27.62
2019-01-30T12:55:32.861Z,19.98
2019-01-30T12:58:01.347Z,24.18
2019-01-30T13:00:36.811Z,52.60
2019-01-30T13:03:05.406Z,62.25
2019-01-30T13:05:33.952Z,26.12
2019-01-30T13:08:02.429Z,23.00
2019-01-30T13:10:31.019Z,21.87
2019-01-30T13:12:59.498Z,25.35
2019-01-30T13:15:29.125Z,29.15
2019-01-30T13:17:57.813Z,25.15
2019-01-30T13:20:26.376Z,37.13
2019-01-30T13:22:54.863Z,39.70
2019-01-30T13:25:24.976Z,28.80
2019-01-30T13:27:53.461Z,25.48
2019-01-30T13:30:26.447Z,24.27
2019-01-30T13:32:54.909Z,25.43
2019-01-30T13:35:23.354Z,33.35
2019-01-30T13:37:51.798Z,79.67
2019-01-30T13:40:21.784Z,28.60
2019-01-30T13:42:50.235Z,35.78
2019-01-30T13:45:18.868Z,26.35
2019-01-30T13:47:47.360Z,56.08
2019-01-30T13:50:17.311Z,29.45
2019-01-30T13:52:45.849Z,29.05
2019-01-30T13:55:15.348Z,29.52
2019-01-30T13:57:43.798Z,27.58
2019-01-30T14:00:13.732Z,33.40
2019-01-30T14:02:42.175Z,31.75
2019-01-30T14:05:10.813Z,34.90
2019-01-30T14:07:39.328Z,32.05
2019-01-30T14:10:09.233Z,30.25
2019-01-30T14:12:37.754Z,35.20
2019-01-30T14:15:07.809Z,37.70
2019-01-30T14:17:36.218Z,39.03
2019-01-30T14:20:06.163Z,39.98
2019-01-30T14:22:34.619Z,35.17
2019-01-30T14:25:04.430Z,34.70
2019-01-30T14:27:32.979Z,36.58
2019-01-30T14:30:01.480Z,36.20
2019-01-30T14:32:29.995Z,35.38
2019-01-30T14:35:09.626Z,36.03
2019-01-30T14:37:29.428Z,37.55
2019-01-30T14:39:58.355Z,35.40
2019-01-30T14:42:27.251Z,32.83
2019-01-30T14:44:55.759Z,38.23
2019-01-30T14:47:24.230Z,32.10
2019-01-30T14:49:52.690Z,38.00
2019-01-30T14:52:21.119Z,37.63
2019-01-30T14:54:49.668Z,41.60
2019-01-30T14:57:18.194Z,36.13
2019-01-30T14:59:46.626Z,38.95
2019-01-30T15:02:15.202Z,37.78
2019-01-30T15:04:43.828Z,33.23
2019-01-30T15:07:12.351Z,30.60
2019-01-30T15:09:40.844Z,33.25
2019-01-30T15:12:09.294Z,31.27
2019-01-30T15:14:37.806Z,31.27
2019-01-30T15:17:06.288Z,36.33
2019-01-30T15:19:34.764Z,28.87
2019-01-30T15:22:03.251Z,30.60
2019-01-30T15:24:31.712Z,30.62
2019-01-30T15:27:00.160Z,33.70
2019-01-30T15:29:28.693Z,29.05
2019-01-30T15:31:57.103Z,31.90
2019-01-30T15:34:25.554Z,29.05
2019-01-30T15:36:54.052Z,35.35
2019-01-30T15:39:22.617Z,34.00
2019-01-30T15:41:51.066Z,37.33
2019-01-30T15:44:19.559Z,41.35
2019-01-30T15:46:48.079Z,36.45
2019-01-30T15:49:16.539Z,31.48
2019-01-30T15:51:45.043Z,30.30
2019-01-30T15:54:13.491Z,29.12
2019-01-30T15:56:41.985Z,34.10
2019-01-30T15:59:10.467Z,31.87
2019-01-30T16:01:38.951Z,32.73
2019-01-30T16:04:07.445Z,31.50
2019-01-30T16:06:37.811Z,29.65
2019-01-30T16:09:07.299Z,31.30
2019-01-30T16:11:35.744Z,36.28
2019-01-30T16:14:05.091Z,32.65
2019-01-30T16:16:33.592Z,31.45
2019-01-30T16:19:02.046Z,39.27
2019-01-30T16:21:30.588Z,35.70
2019-01-30T16:23:58.996Z,36.90
2019-01-30T16:26:27.444Z,37.25
2019-01-30T16:28:55.936Z,37.38
2019-01-30T16:31:24.510Z,35.90
2019-01-30T16:33:52.986Z,37.10
2019-01-30T16:36:21.437Z,34.15
2019-01-30T16:38:49.955Z,43.48
2019-01-30T16:41:18.390Z,39.90
2019-01-30T16:43:47.253Z,38.80
2019-01-30T16:46:16.217Z,46.40
2019-01-30T16:48:45.142Z,39.10
2019-01-30T16:51:13.955Z,39.48
2019-01-30T16:53:42.888Z,38.63
2019-01-30T16:56:11.315Z,40.30
2019-01-30T16:58:39.762Z,47.27
2019-01-30T17:01:08.434Z,48.10
2019-01-30T17:03:37.017Z,40.80
2019-01-30T17:06:07.624Z,47.80
2019-01-30T17:08:36.352Z,40.60
2019-01-30T17:11:05.292Z,42.75
2019-01-30T17:13:33.815Z,38.98
2019-01-30T17:16:02.243Z,43.38
2019-01-30T17:18:30.700Z,38.20
2019-01-30T17:20:59.451Z,39.33
2019-01-30T17:23:28.063Z,44.90
2019-01-30T17:25:56.715Z,35.23
2019-01-30T17:28:25.203Z,41.18
2019-01-30T17:30:55.218Z,35.83
2019-01-30T17:33:23.662Z,40.95
2019-01-30T17:35:52.288Z,37.95
2019-01-30T17:38:20.857Z,38.67
2019-01-30T17:40:49.303Z,34.90
2019-01-30T17:43:17.791Z,36.25
2019-01-30T17:45:46.316Z,67.12
2019-01-30T17:48:15.633Z,51.50
2019-01-30T17:50:44.086Z,40.30
2019-01-30T17:53:12.682Z,36.68
2019-01-30T17:55:41.368Z,36.95
2019-01-30T17:58:10.560Z,40.03
2019-01-30T18:00:42.133Z,34.25
2019-01-30T18:03:10.786Z,42.25
2019-01-30T18:05:39.230Z,47.43
2019-01-30T18:08:07.714Z,44.77
2019-01-30T18:10:36.168Z,39.65
2019-01-30T18:13:04.716Z,40.80
2019-01-30T18:15:33.197Z,38.75
2019-01-30T18:18:01.650Z,40.12
2019-01-30T18:20:30.090Z,40.92
2019-01-30T18:22:58.578Z,37.53
2019-01-30T18:25:27.027Z,35.13
2019-01-30T18:27:55.502Z,37.85
2019-01-30T18:30:24.370Z,33.85
2019-01-30T18:32:53.117Z,38.42
2019-01-30T18:35:21.566Z,39.13
2019-01-30T18:37:50.138Z,39.65
2019-01-30T18:40:22.776Z,43.90
2019-01-30T18:42:51.218Z,38.50
2019-01-30T18:45:21.183Z,39.27
2019-01-30T18:47:49.628Z,38.85
2019-01-30T18:50:19.179Z,42.05
2019-01-30T18:52:47.672Z,34.25
2019-01-30T18:55:16.115Z,33.45
2019-01-30T18:57:44.560Z,36.90
2019-01-30T19:00:14.511Z,36.50
2019-01-30T19:02:42.963Z,38.15
2019-01-30T19:05:12.511Z,33.40
2019-01-30T19:07:40.994Z,37.65
2019-01-30T19:10:11.156Z,35.88
2019-01-30T19:12:39.598Z,41.42
2019-01-30T19:15:15.445Z,38.95
2019-01-30T19:17:43.882Z,36.70
2019-01-30T19:20:14.147Z,38.30
2019-01-30T19:22:42.632Z,43.30
2019-01-30T19:25:11.080Z,39.00
2019-01-30T19:27:39.542Z,36.50
2019-01-30T19:30:09.500Z,35.60
2019-01-30T19:32:37.946Z,39.85
2019-01-30T19:35:07.085Z,35.48
2019-01-30T19:37:35.576Z,32.45
2019-01-30T19:40:05.034Z,37.30
2019-01-30T19:42:33.474Z,34.08
2019-01-30T19:45:01.978Z,41.53
2019-01-30T19:47:30.414Z,34.25
2019-01-30T19:49:58.860Z,32.40
2019-01-30T19:52:27.351Z,34.40
2019-01-30T19:54:55.826Z,33.05
2019-01-30T19:57:24.266Z,34.27
2019-01-30T19:59:52.767Z,48.00
2019-01-30T20:02:21.215Z,39.23
2019-01-30T20:04:49.659Z,34.08
2019-01-30T20:07:18.162Z,33.78
2019-01-30T20:09:46.628Z,36.33
2019-01-30T20:12:15.077Z,37.95
2019-01-30T20:14:43.564Z,37.20
2019-01-30T20:17:12.010Z,37.45
2019-01-30T20:19:40.464Z,34.25
2019-01-30T20:22:08.951Z,35.45
2019-01-30T20:24:37.390Z,40.15
2019-01-30T20:27:05.849Z,38.02
2019-01-30T20:29:34.347Z,36.25
2019-01-30T20:32:02.800Z,31.70
2019-01-30T20:34:31.291Z,41.28
2019-01-30T20:36:59.877Z,37.48
2019-01-30T20:39:28.324Z,35.98
2019-01-30T20:41:56.767Z,40.10
2019-01-30T20:44:25.468Z,35.78
2019-01-30T20:46:53.957Z,42.88
2019-01-30T20:49:22.403Z,36.85
2019-01-30T20:51:50.959Z,37.95
2019-01-30T20:54:19.643Z,42.13
2019-01-30T20:56:48.139Z,41.70
2019-01-30T20:59:16.647Z,35.70
2019-01-30T21:01:45.082Z,39.08
2019-01-30T21:04:13.646Z,35.43
2019-01-30T21:06:42.242Z,37.03
2019-01-30T21:09:11.074Z,33.28
2019-01-30T21:11:39.528Z,31.82
2019-01-30T21:14:08.843Z,27.40
2019-01-30T21:16:37.505Z,29.55
2019-01-30T21:19:05.971Z,34.25
2019-01-30T21:21:34.488Z,33.98
2019-01-30T21:24:03.789Z,36.48
2019-01-30T21:26:32.474Z,30.68
2019-01-30T21:29:00.986Z,37.03
2019-01-30T21:31:29.538Z,32.58
2019-01-30T21:33:58.007Z,33.60
2019-01-30T21:36:26.526Z,32.30
2019-01-30T21:38:55.087Z,35.78
2019-01-30T21:41:23.565Z,32.73
2019-01-30T21:43:52.123Z,37.28
2019-01-30T21:46:20.576Z,39.70
2019-01-30T21:48:49.112Z,33.50
2019-01-30T21:51:17.555Z,36.10
2019-01-30T21:53:46.006Z,33.00
2019-01-30T21:56:14.463Z,33.53
2019-01-30T21:58:42.976Z,40.60
2019-01-30T22:01:11.420Z,36.98
2019-01-30T22:03:39.877Z,35.15
2019-01-30T22:06:08.383Z,35.05
2019-01-30T22:08:37.266Z,32.65
2019-01-30T22:11:06.156Z,33.28
2019-01-30T22:13:35.152Z,34.15
2019-01-30T22:16:04.904Z,31.80
2019-01-30T22:18:33.764Z,32.50
2019-01-30T22:21:02.743Z,34.08
2019-01-30T22:23:31.634Z,35.43
2019-01-30T22:26:00.525Z,36.30
2019-01-30T22:28:29.455Z,31.95
2019-01-30T22:30:58.409Z,34.95
2019-01-30T22:33:27.299Z,32.25
2019-01-30T22:35:56.143Z,33.40
2019-01-30T22:38:25.080Z,35.52
2019-01-30T22:40:53.970Z,35.08
2019-01-30T22:43:22.862Z,36.45
2019-01-30T22:45:51.742Z,33.02
2019-01-30T22:48:20.645Z,37.08
2019-01-30T22:50:49.534Z,39.78
2019-01-30T22:53:18.466Z,38.17
2019-01-30T22:55:47.417Z,33.50
2019-01-30T22:58:16.412Z,33.42
2019-01-30T23:01:15.612Z,39.03
2019-01-30T23:04:13.381Z,37.73
2019-01-30T23:06:47.803Z,33.95
2019-01-30T23:09:31.458Z,34.43
2019-01-30T23:12:32.481Z,32.83
2019-01-30T23:15:19.202Z,31.60
2019-01-30T23:17:49.209Z,32.38
2019-01-30T23:20:19.115Z,31.40
2019-01-30T23:22:49.057Z,33.80
2019-01-30T23:25:21.694Z,30.05
2019-01-30T23:27:51.733Z,29.98
2019-01-30T23:30:27.529Z,30.40
2019-01-30T23:33:03.575Z,35.15
2019-01-30T23:35:36.504Z,26.73
2019-01-30T23:38:06.462Z,28.42
2019-01-30T23:40:53.357Z,33.38
2019-01-30T23:43:35.424Z,31.82
2019-01-30T23:46:17.660Z,30.75
2019-01-30T23:48:53.597Z,29.27
2019-01-30T23:51:26.456Z,30.17
2019-01-30T23:53:56.380Z,37.13
2019-01-30T23:56:41.588Z,39.38
2019-01-30T23:59:14.754Z,43.68
